Date,TemperatureHighF,TemperatureAvgF,TemperatureLowF,DewpointHighF,DewpointAvgF,DewpointLowF,HumidityHigh,HumidityAvg,HumidityLow,PressureMaxIn,PressureMinIn,WindSpeedMaxMPH,WindSpeedAvgMPH,GustSpeedMaxMPH,PrecipitationSumIn
2013-1-1,29.7,24.2,15.4,22.7,18.0,7.7,85,77,70,30.24,30.08,14,4,14,0.00
2013-1-2,30.7,19.9,11.7,18.2,10.7,5.3,78,68,49,30.24,30.12,14,3,14,0.00
2013-1-3,32.2,27.2,18.9,26.0,20.1,11.6,82,74,67,30.24,30.09,9,4,9,0.00
2013-1-4,38.5,26.1,15.6,25.1,19.0,10.6,82,75,57,30.27,30.16,15,5,15,0.00
2013-1-5,37.2,30.7,21.0,33.1,26.1,17.5,90,83,70,30.25,29.97,21,5,21,0.00
2013-1-6,36.9,32.1,23.4,33.0,26.3,18.8,87,79,73,30.32,29.91,17,5,17,0.00
2013-1-7,40.8,29.3,19.2,27.7,22.7,16.0,88,77,54,30.35,30.12,20,6,20,0.00
2013-1-8,43.5,34.9,28.9,33.3,28.4,23.7,84,77,66,30.25,30.06,16,5,16,0.00
2013-1-9,53.1,42.0,27.5,36.3,28.9,19.4,80,62,34,30.47,30.04,21,6,21,0.00
2013-1-10,45.0,35.4,23.5,40.6,28.4,19.1,92,76,57,30.49,29.92,17,4,17,0.47
2013-1-11,53.8,51.0,42.8,52.1,48.3,40.6,94,91,86,29.92,29.70,18,7,18,0.30
2013-1-12,57.7,48.8,35.4,50.4,41.9,31.3,88,77,57,30.00,29.77,18,6,18,0.09
2013-1-13,36.5,29.2,16.0,34.1,26.1,10.9,92,88,79,30.21,29.84,12,5,12,0.06
2013-1-14,26.2,18.3,13.6,19.1,12.8,9.1,86,79,67,30.49,30.22,9,2,9,0.00
2013-1-15,35.4,22.2,12.4,26.6,16.4,9.0,90,79,64,30.46,30.10,7,1,7,0.03
2013-1-16,38.7,29.0,16.7,28.3,22.0,13.5,90,76,59,30.10,29.90,20,5,20,0.00
2013-1-17,35.4,29.4,19.0,30.8,19.0,11.4,83,66,49,30.38,30.04,16,5,16,0.00
2013-1-18,42.1,31.2,18.1,29.7,22.7,11.6,83,71,58,30.41,29.96,23,8,23,0.00
2013-1-19,51.3,43.6,35.4,37.8,33.3,16.8,73,67,47,29.98,29.76,28,10,28,0.00
2013-1-20,34.9,22.0,17.8,16.2,8.1,4.1,63,55,43,30.32,29.88,22,7,22,0.00
2013-1-21,18.3,13.5,7.3,7.5,0.6,-5.2,73,56,46,30.24,30.11,17,8,17,0.00
2013-1-22,16.0,9.7,3.4,0.4,-2.6,-5.6,67,57,47,30.41,30.24,13,6,13,0.00
2013-1-23,23.2,18.0,11.1,14.7,7.0,-1.0,78,61,56,30.32,30.08,24,6,24,0.00
2013-1-24,22.5,18.9,16.0,19.1,13.5,10.2,89,79,70,30.64,30.24,21,5,21,0.03
2013-1-25,28.6,24.0,19.0,22.5,17.2,11.8,84,75,62,30.36,30.00,17,4,17,0.00
2013-1-26,31.8,24.2,18.9,21.2,16.5,12.6,81,72,62,30.42,30.13,15,3,15,0.03
2013-1-27,36.5,29.6,21.9,33.9,24.0,16.4,91,80,72,30.41,29.95,17,6,17,0.08
2013-1-28,50.9,45.2,36.3,49.2,43.4,33.9,95,93,91,29.99,29.85,15,4,15,1.11
2013-1-29,61.0,57.4,48.6,58.5,55.2,46.9,95,92,89,29.86,29.43,23,8,23,0.91
2013-1-30,54.0,38.4,24.6,52.3,35.9,18.4,96,91,77,29.61,29.28,18,6,18,0.33
2013-1-31,24.6,18.0,9.5,19.1,10.9,2.3,82,74,67,30.12,29.61,21,9,21,0.00
2013-2-1,18.3,12.0,4.3,12.7,4.1,-2.0,79,70,60,30.40,30.12,16,7,16,0.00
2013-2-2,28.2,21.1,12.2,23.9,17.0,6.9,88,84,78,30.18,30.01,15,5,15,0.00
2013-2-3,26.4,19.1,11.8,18.2,12.5,6.0,83,75,63,30.08,29.94,18,4,18,0.03
2013-2-4,31.8,26.4,22.3,25.1,22.1,18.1,88,84,75,30.04,29.85,9,2,9,0.00
2013-2-5,34.2,27.7,15.6,30.2,23.5,12.4,91,84,75,30.05,29.86,15,5,15,0.06
2013-2-6,41.4,33.4,21.0,28.2,24.8,16.0,86,71,56,30.29,30.06,12,4,12,0.06
2013-2-7,45.5,36.5,29.7,36.3,31.7,24.8,93,83,69,30.12,29.84,14,4,14,0.39
2013-2-8,35.1,31.4,29.8,32.5,28.1,25.8,93,87,81,30.35,29.89,23,10,23,0.00
2013-2-9,30.4,30.2,29.8,26.1,26.0,25.8,85,84,84,30.35,30.33,6,2,6,0.00
2013-2-11,35.6,31.5,27.1,26.4,23.4,20.3,76,72,67,30.08,29.88,9,5,16,0.00
2013-2-12,33.8,29.3,21.9,25.4,22.6,18.4,86,76,70,30.16,29.94,16,3,16,0.00
2013-2-13,49.1,33.5,21.9,35.0,27.1,18.4,91,78,56,29.93,29.74,14,3,14,0.00
2013-2-14,44.2,38.3,31.3,36.3,30.2,23.1,87,73,57,29.97,29.68,16,6,16,0.00
2013-2-15,33.6,29.5,25.7,27.0,20.6,15.3,84,69,52,30.22,29.97,15,4,15,0.00
2013-2-16,25.7,20.9,17.1,16.6,10.2,5.9,72,63,53,30.21,30.08,16,7,16,0.00
2013-2-17,34.2,23.6,12.4,15.4,9.5,4.2,74,56,36,30.25,30.05,9,3,9,0.00
2013-2-18,56.3,41.9,27.5,45.1,32.7,15.4,91,70,56,30.05,29.47,32,10,32,0.30
2013-2-19,36.1,20.6,16.0,33.2,14.4,8.6,90,77,69,30.13,29.55,22,9,22,0.09
2013-2-20,27.1,20.2,14.2,19.9,12.2,5.9,76,71,63,30.37,30.13,14,6,14,0.00
2013-2-21,31.8,28.6,25.3,24.5,21.9,19.8,83,76,71,30.39,30.00,17,5,17,0.00
2013-2-22,36.1,30.1,24.3,33.8,26.2,20.4,91,85,77,30.00,29.85,14,4,14,0.00
2013-2-23,32.5,28.9,25.2,24.8,21.8,18.9,83,75,64,30.01,29.90,15,4,15,0.03
2013-2-24,41.9,29.1,16.3,26.7,20.8,13.1,89,72,51,30.17,29.95,7,1,7,0.17
2013-2-25,46.6,34.0,20.7,31.6,25.4,17.4,91,72,53,30.21,29.97,9,2,9,0.00
2013-2-26,37.6,35.0,33.4,32.6,29.7,25.6,92,82,62,29.97,29.50,15,5,15,0.41
2013-2-27,36.5,34.6,33.6,34.7,32.7,31.7,94,93,92,29.67,29.50,6,1,6,0.25
2013-2-28,36.5,34.3,31.5,34.7,31.6,27.8,94,90,81,30.01,29.67,20,8,20,0.36
2013-3-1,34.9,32.1,30.0,29.8,26.9,23.4,91,81,73,30.15,29.99,14,5,14,0.03
2013-3-2,31.8,29.4,27.3,26.0,22.8,19.7,84,76,69,30.19,30.10,0,0,0,0.00
2013-3-3,35.1,26.3,17.8,24.1,17.2,12.7,87,69,47,30.18,30.06,10,1,10,0.03
2013-3-4,39.7,29.4,16.0,28.8,21.4,12.4,89,73,55,30.18,29.99,9,2,9,0.00
2013-3-5,35.1,33.0,30.4,31.5,29.4,27.8,92,87,79,29.99,29.80,17,5,17,0.03
2013-3-6,35.8,33.3,31.5,31.4,29.4,27.5,90,85,83,30.28,29.92,16,5,16,0.08
2013-3-7,41.2,34.5,27.5,32.1,28.0,23.4,87,77,61,30.43,30.25,8,3,8,0.06
2013-3-8,45.1,32.3,18.5,31.1,23.8,15.0,92,72,51,30.53,30.31,6,0,6,0.00
2013-3-9,43.5,38.5,30.9,35.9,31.0,23.6,81,74,65,30.31,29.88,14,6,14,0.00
2013-3-10,56.7,46.9,39.4,49.9,42.6,34.7,92,85,72,29.88,29.65,14,3,14,0.69
2013-3-11,50.7,42.4,34.5,48.5,39.8,31.0,93,90,86,29.80,29.61,14,5,14,0.06
2013-3-12,40.5,34.8,30.7,31.3,28.0,22.4,88,77,60,29.99,29.80,15,6,15,0.00
2013-3-13,35.6,30.2,26.1,23.0,19.9,16.4,77,66,49,30.33,29.99,18,8,18,0.00
2013-3-14,42.6,36.8,26.1,29.8,26.0,20.7,87,66,45,30.35,30.08,10,4,10,0.00
2013-3-15,49.8,37.4,30.0,38.6,33.2,27.3,92,85,63,30.08,29.74,9,3,9,0.19
2013-3-16,37.2,34.8,31.6,35.1,31.0,24.5,93,86,74,30.10,29.68,16,3,16,0.00
2013-3-17,43.7,34.8,31.3,27.3,24.3,21.9,78,66,51,30.24,30.00,17,5,17,0.03
2013-3-18,37.2,32.9,26.1,33.9,28.0,16.6,91,82,67,30.00,29.66,18,5,18,0.06
2013-3-19,38.5,29.0,21.7,20.3,16.5,13.1,73,60,43,30.07,29.81,23,9,23,0.00
2013-3-20,30.0,25.1,20.3,16.5,11.2,8.2,69,56,45,30.12,30.00,16,5,16,0.00
2013-3-21,34.9,25.7,17.6,18.9,13.7,8.0,78,61,47,30.09,29.97,14,5,14,0.00
2013-3-22,41.0,29.1,18.7,23.7,18.7,14.6,87,67,44,30.11,30.02,10,2,10,0.00
2013-3-23,41.4,32.3,23.5,29.0,24.2,19.1,87,73,55,30.18,30.03,13,3,13,0.00
2013-3-24,40.8,36.4,31.1,29.8,27.4,25.5,88,70,57,30.14,29.65,24,9,24,0.00
2013-3-25,40.1,35.5,31.3,32.8,29.5,26.1,86,79,72,30.04,29.66,24,11,24,0.00
2013-3-26,43.5,37.4,32.7,31.8,29.6,27.6,90,74,56,30.25,30.04,14,5,14,0.03
2013-3-27,45.1,37.6,28.9,30.7,26.1,22.4,85,65,43,30.36,30.22,9,2,9,0.00
2013-3-28,51.4,37.8,24.8,31.1,22.9,18.9,86,58,35,30.39,30.26,10,2,10,0.00
2013-3-29,54.1,40.3,26.8,33.5,23.3,18.6,83,54,33,30.37,30.21,11,2,11,0.00
2013-3-30,61.0,45.4,26.1,39.3,31.8,21.3,85,62,41,30.24,29.87,14,4,14,0.00
2013-3-31,62.8,51.6,40.8,43.7,38.6,28.0,88,63,37,29.88,29.77,17,6,17,0.00
2013-4-1,40.6,35.8,28.2,29.0,22.0,16.4,66,57,47,30.18,29.87,14,6,14,0.00
2013-4-2,45.5,35.5,25.0,22.0,16.9,13.7,64,48,32,30.32,30.15,12,5,12,0.00
2013-4-3,45.5,32.6,20.5,28.5,20.1,13.6,85,61,37,30.49,30.27,13,3,13,0.00
2013-4-4,61.7,43.1,23.9,28.1,23.4,18.0,80,50,26,30.32,29.97,9,2,9,0.00
2013-4-5,46.6,41.1,36.1,34.7,29.7,24.6,86,65,46,30.27,29.97,17,8,17,0.00
2013-4-6,72.3,54.6,33.3,44.5,35.1,25.9,75,50,31,30.16,29.66,30,9,30,0.00
2013-4-7,63.1,50.1,37.7,47.9,40.6,32.8,83,70,51,30.03,29.66,21,6,21,0.03
2013-4-8,72.1,53.8,37.6,58.1,45.7,32.9,92,75,53,29.99,29.73,21,6,24,0.25
2013-4-9,75.7,50.3,41.7,62.9,44.8,38.8,92,82,51,30.00,29.87,13,4,13,0.00
2013-4-10,45.1,42.9,41.2,43.2,40.8,38.8,93,92,91,29.99,29.82,14,5,14,0.41
2013-4-11,53.8,47.8,41.2,52.4,46.1,39.1,95,94,93,29.86,29.58,16,4,16,1.22
2013-4-12,47.7,42.0,38.5,42.9,37.1,32.3,93,83,71,29.87,29.58,16,6,16,0.03
2013-4-13,48.6,41.4,37.4,35.1,32.4,29.4,85,71,53,30.02,29.85,13,5,13,0.00
2013-4-14,71.1,54.3,40.3,52.7,42.1,32.1,78,64,51,30.05,29.73,18,6,18,0.00
2013-4-15,67.8,58.8,45.7,58.3,51.4,43.5,92,77,59,29.96,29.74,23,8,23,0.94
2013-4-16,50.2,45.7,43.0,44.3,38.9,34.9,93,78,60,30.25,29.94,12,4,12,0.25
2013-4-17,55.6,48.8,42.8,51.7,43.3,34.9,94,82,70,30.26,29.81,21,5,21,1.33
2013-4-18,66.4,56.9,52.2,63.7,54.8,50.2,95,93,91,29.83,29.54,16,5,16,0.36
2013-4-19,63.7,63.7,63.7,61.6,61.6,32.3,93,93,93,29.70,29.58,21,21,21,0.03
2013-4-22,63.5,54.7,50.0,49.9,43.3,36.8,80,66,59,30.09,29.97,7,2,13,0.03
2013-4-23,66.9,49.4,39.0,52.5,43.6,36.6,91,82,58,30.09,29.89,15,7,15,0.41
2013-4-24,39.0,38.6,37.6,36.6,35.4,34.1,91,88,86,29.97,29.91,18,8,18,0.03
2013-4-26,66.4,49.1,39.9,51.8,42.2,36.7,93,79,52,30.31,30.25,3,1,8,0.94
2013-4-27,73.6,66.6,57.7,49.7,45.2,40.0,74,47,32,30.28,30.01,12,5,13,0.00
2013-4-28,57.7,54.1,50.7,51.7,50.3,48.2,91,87,75,30.01,29.87,4,0,4,0.06
2013-4-29,75.4,62.0,45.9,59.2,52.4,44.0,95,73,51,30.00,29.84,14,4,14,0.00
2013-4-30,86.9,72.0,59.5,63.4,57.4,52.1,79,62,39,29.99,29.85,18,8,18,0.00
2013-5-1,86.7,72.8,58.1,61.3,57.4,54.2,90,62,37,30.18,29.99,13,3,13,0.00
2013-5-2,62.2,48.1,41.7,55.5,42.7,38.1,87,82,73,30.26,30.13,18,7,18,0.00
2013-5-3,50.9,45.9,41.2,48.2,42.9,38.1,92,89,82,30.13,29.95,16,5,16,0.11
2013-5-4,77.7,62.4,48.4,55.0,49.4,43.6,94,66,36,30.06,29.95,16,3,16,0.00
2013-5-5,70.9,56.0,43.2,54.5,46.5,40.1,93,72,51,30.06,29.98,14,3,14,0.00
2013-5-6,67.5,54.5,44.4,49.7,44.6,39.8,86,70,51,30.10,29.97,10,3,10,0.00
2013-5-7,68.7,56.0,42.6,51.2,45.9,39.8,92,71,51,30.10,29.99,8,2,8,0.00
2013-5-8,78.3,62.7,47.1,55.2,48.7,44.0,92,63,37,30.09,29.98,12,2,12,0.00
2013-5-9,82.4,64.0,49.3,61.1,54.8,44.8,93,75,40,30.03,29.83,20,3,20,0.47
2013-5-10,61.7,47.5,41.9,60.0,45.5,40.0,94,93,91,29.98,29.77,15,6,15,0.03
2013-5-11,62.1,49.0,39.2,55.4,43.3,33.1,94,81,58,30.02,29.85,19,4,19,0.00
2013-5-12,54.1,47.1,41.4,36.0,32.7,30.1,73,58,45,30.18,30.02,17,5,17,0.00
2013-5-13,65.1,52.2,33.3,38.9,34.6,28.8,88,54,33,30.22,30.04,10,2,10,0.00
2013-5-14,91.2,72.4,51.8,62.0,50.9,32.9,59,48,33,30.04,29.69,16,5,16,0.00
2013-5-15,81.9,74.2,58.1,60.6,54.6,49.5,74,51,38,29.92,29.68,16,5,16,0.00
2013-5-16,83.7,66.8,50.0,56.9,49.1,43.6,92,58,29,30.00,29.83,10,2,10,0.00
2013-5-17,78.3,64.8,53.6,59.6,53.2,45.5,82,67,51,30.10,29.97,10,2,10,0.00
2013-5-18,85.5,70.8,59.5,64.4,58.4,49.2,89,66,46,30.11,29.97,9,2,9,0.00
2013-5-19,90.3,76.2,60.1,69.3,63.8,57.4,93,68,44,30.03,29.83,14,3,14,0.00
2013-5-20,92.5,81.1,70.5,70.3,65.7,60.1,89,62,35,29.91,29.76,22,6,22,0.00
2013-5-21,85.1,72.8,63.9,69.0,65.2,61.5,93,78,57,29.83,29.72,22,5,22,1.27
2013-5-22,77.2,70.6,62.2,67.8,63.1,55.8,91,78,53,29.77,29.68,14,4,14,0.25
2013-5-23,62.2,48.3,43.5,56.0,44.1,36.8,92,86,71,30.30,29.77,20,7,20,0.14
2013-5-24,55.9,47.6,39.2,44.4,38.9,33.9,83,72,48,30.47,30.23,14,5,14,0.00
2013-5-25,58.5,48.8,37.0,48.7,42.6,33.4,91,79,68,30.44,30.27,6,1,6,0.00
2013-5-26,73.6,58.0,40.6,54.4,47.5,37.7,93,71,42,30.34,30.14,10,2,10,0.00
2013-5-27,64.8,60.4,55.2,61.1,56.6,52.6,93,87,77,30.15,29.87,12,4,12,0.22
2013-5-28,81.5,70.5,63.1,71.6,66.0,61.1,95,86,68,29.91,29.80,16,5,16,1.16
2013-5-29,86.4,74.5,64.4,73.0,66.4,62.0,94,77,58,30.10,29.84,11,4,11,0.11
2013-5-30,87.6,77.5,68.5,73.7,68.0,61.8,85,73,59,30.03,29.87,20,6,20,0.25
2013-5-31,78.8,71.9,66.0,70.4,66.5,62.5,94,83,74,29.98,29.76,18,5,18,0.41
2013-6-1,79.0,70.8,62.6,68.3,64.3,59.2,92,80,67,29.86,29.72,20,6,20,0.25
2013-6-2,63.7,55.0,43.7,61.3,50.4,40.2,93,85,74,30.08,29.75,14,4,14,0.00
2013-6-3,68.0,54.6,38.7,51.9,44.6,36.4,94,71,46,30.15,30.04,8,2,8,0.00
2013-6-4,76.1,60.0,44.2,54.4,48.1,41.5,93,68,39,30.21,30.08,12,2,12,0.00
2013-6-5,80.8,67.2,53.6,57.7,52.6,48.6,90,62,39,30.10,29.93,13,3,13,0.00
2013-6-6,69.6,61.5,53.2,56.6,51.4,45.9,86,70,54,29.98,29.88,12,3,12,0.03
2013-6-7,66.7,58.9,49.5,56.6,51.7,44.2,93,78,58,30.00,29.88,13,3,13,0.00
2013-6-8,75.4,62.0,47.5,58.3,50.0,43.6,93,67,44,30.06,29.92,10,2,10,0.00
2013-6-9,85.1,71.7,55.0,67.2,58.3,47.8,88,65,42,30.06,29.85,14,2,14,0.00
2013-6-10,77.5,68.1,61.5,70.4,63.9,59.2,95,87,73,29.89,29.77,9,2,9,0.56
2013-6-11,86.9,71.9,59.7,71.2,64.6,58.0,95,80,51,30.00,29.84,8,2,8,0.58
2013-6-12,87.6,74.0,64.8,77.2,69.6,62.4,95,87,69,29.98,29.65,10,2,10,0.72
2013-6-13,68.2,63.1,56.7,63.0,57.6,52.5,94,83,69,30.07,29.63,17,5,17,0.08
2013-6-14,71.1,62.4,55.4,61.4,56.3,52.1,93,81,67,30.18,30.02,8,3,8,0.00
2013-6-15,79.3,68.3,56.3,68.8,63.4,53.4,94,85,68,30.10,29.90,10,2,10,0.14
2013-6-16,85.5,75.7,67.3,71.2,67.0,63.5,89,75,56,30.01,29.89,12,3,12,0.03
2013-6-17,89.4,77.0,63.7,72.6,63.0,58.1,95,66,36,30.01,29.87,10,2,10,0.03
2013-6-18,68.2,62.7,57.9,62.2,57.7,53.6,93,84,72,30.11,29.93,13,4,13,0.03
2013-6-19,77.2,66.3,55.0,61.5,52.9,48.5,88,64,41,30.20,30.04,10,2,10,0.00
2013-6-20,89.8,74.0,54.9,68.8,61.6,49.3,89,67,48,30.23,30.08,7,2,7,0.00
2013-6-21,88.2,74.1,64.9,72.9,66.7,61.5,89,79,55,30.20,29.93,15,4,15,0.44
2013-6-22,88.2,77.1,69.4,77.0,70.0,64.7,89,79,67,30.17,30.01,12,3,12,0.03
2013-6-23,89.4,77.3,66.4,75.4,68.7,63.4,92,76,56,30.11,29.96,14,4,14,0.00
2013-6-24,87.6,75.0,68.0,75.9,68.3,64.6,91,81,60,30.18,29.92,21,4,21,0.11
2013-6-25,90.9,78.4,68.5,77.8,71.4,65.5,92,80,63,30.04,29.83,15,3,15,0.00
2013-6-26,85.3,74.9,66.7,75.2,68.7,64.2,94,81,66,29.92,29.75,13,3,13,1.72
2013-6-27,92.1,77.1,66.9,75.8,69.1,64.2,94,78,50,29.88,29.70,10,2,10,0.03
2013-6-28,83.7,73.0,66.0,68.8,65.3,62.4,93,78,53,29.76,29.64,10,2,10,0.17
2013-6-29,73.8,67.1,64.4,67.4,63.6,62.0,93,89,80,29.77,29.62,11,4,11,0.15
2013-6-30,74.3,69.1,65.5,65.0,62.1,58.0,89,78,66,30.00,29.77,13,4,13,0.00
2013-7-1,75.7,68.9,58.5,63.4,57.1,45.1,90,67,54,30.10,29.97,14,5,14,0.00
2013-7-2,67.5,64.0,62.2,61.3,58.8,54.0,92,84,62,30.12,30.03,13,4,13,0.14
2013-7-3,77.5,68.3,61.7,69.5,63.9,59.0,95,86,70,30.13,30.00,10,2,10,0.17
2013-7-4,82.6,68.9,57.2,69.4,62.4,55.2,95,82,61,30.19,30.08,9,2,9,0.00
2013-7-5,86.5,74.3,59.4,71.0,65.5,57.3,95,76,56,30.17,30.04,9,2,9,0.00
2013-7-6,83.3,75.3,67.5,73.2,68.9,64.8,93,81,67,30.14,30.00,7,2,7,0.00
2013-7-7,89.1,78.8,69.1,74.7,70.5,66.0,90,77,58,30.10,29.99,14,3,14,0.00
2013-7-8,88.0,77.9,69.8,76.7,71.8,66.7,93,82,66,30.11,29.98,14,4,14,0.75
2013-7-9,87.6,80.2,72.3,79.1,74.8,69.9,94,84,74,30.06,29.90,12,2,12,0.00
2013-7-10,84.7,76.5,62.2,78.3,69.4,58.5,93,79,61,30.03,29.86,12,3,12,0.00
2013-7-11,79.7,69.0,58.1,67.5,60.1,54.9,95,75,51,30.18,30.00,10,2,10,0.00
2013-7-12,82.0,69.3,54.3,69.8,61.3,51.7,95,77,53,30.21,30.10,8,2,8,0.00
2013-7-13,86.9,73.3,57.6,69.3,63.7,55.3,95,74,49,30.22,30.12,9,2,9,0.00
2013-7-14,89.6,78.8,66.4,74.9,69.5,63.5,93,75,56,30.28,30.16,10,2,10,0.00
2013-7-15,93.0,81.6,71.6,79.6,74.3,67.5,94,79,61,30.34,30.20,7,1,7,0.00
2013-7-16,95.0,83.5,72.0,78.3,73.8,69.5,94,75,54,30.38,30.26,9,2,9,0.00
2013-7-17,96.3,83.4,71.4,78.0,73.6,68.8,94,74,52,30.37,30.18,6,1,6,0.00
2013-7-18,97.9,85.4,73.2,80.1,74.3,70.8,94,72,48,30.21,30.00,12,2,12,0.00
2013-7-19,98.8,87.5,75.9,77.8,73.7,70.6,90,66,43,30.01,29.81,20,5,20,0.00
2013-7-20,89.4,80.8,74.1,75.0,69.2,60.6,85,69,42,29.99,29.83,8,3,8,0.00
2013-7-21,92.5,79.1,66.2,69.9,67.4,63.0,93,70,45,30.05,29.89,13,2,13,0.00
2013-7-22,88.0,83.6,70.7,70.8,69.3,67.0,88,63,55,29.93,29.79,7,2,7,0.00
2013-7-23,80.1,73.1,65.5,69.9,62.7,51.2,84,70,61,29.99,29.73,20,6,20,0.00
2013-7-24,73.9,65.1,54.0,54.2,51.8,48.3,86,63,46,30.14,29.98,14,4,14,0.00
2013-7-25,85.3,68.7,50.5,62.4,54.6,47.9,94,65,33,30.19,30.02,7,1,7,0.00
2013-7-26,80.1,68.8,61.9,64.4,60.5,55.6,88,75,56,30.11,29.91,13,3,13,0.00
2013-7-27,70.3,64.3,58.1,64.2,56.2,46.6,94,76,56,29.97,29.87,13,4,13,0.00
2013-7-28,73.9,61.4,51.6,55.5,50.4,47.1,87,69,45,30.05,29.89,10,3,10,0.00
2013-7-29,77.9,65.8,53.1,61.4,55.8,48.8,90,71,54,30.23,30.03,9,2,9,0.00
2013-7-30,79.0,63.2,53.6,66.6,56.7,50.7,95,81,57,30.26,30.18,7,1,7,0.00
2013-7-31,74.7,69.3,63.7,69.1,65.6,60.4,93,88,64,30.21,29.98,6,2,6,0.33
2013-8-1,83.7,70.2,58.3,70.3,59.2,54.9,95,72,39,30.06,29.96,13,2,13,0.00
2013-8-2,88.3,69.1,57.9,72.7,64.2,54.6,94,85,56,29.99,29.87,10,2,10,1.47
2013-8-3,78.6,70.5,59.5,69.4,61.9,55.0,95,76,48,30.15,29.97,12,2,12,1.39
2013-8-4,77.2,67.0,57.0,68.0,58.7,54.2,95,76,57,30.26,30.11,12,2,12,0.00
2013-8-5,77.5,67.1,55.9,68.0,59.8,52.9,92,78,64,30.16,29.93,10,2,10,0.00
2013-8-6,85.1,74.1,66.2,73.3,67.6,61.6,90,81,65,30.01,29.88,10,3,10,0.00
2013-8-7,91.2,77.9,68.0,78.5,71.5,63.7,93,81,64,29.97,29.84,12,3,12,0.00
2013-8-8,80.1,71.6,67.1,66.6,63.6,59.8,92,77,60,30.10,29.97,10,3,10,0.00
2013-8-9,86.7,73.3,58.8,66.9,62.5,55.6,94,71,49,30.10,29.99,7,2,7,0.00
2013-8-10,83.5,73.3,63.3,70.6,60.9,54.8,94,68,39,30.20,30.05,13,2,13,0.00
2013-8-11,86.7,72.5,57.2,68.3,61.0,54.1,94,70,46,30.20,30.05,7,1,7,0.00
2013-8-12,88.9,74.7,64.4,69.3,66.1,60.5,93,76,50,30.07,29.88,8,2,8,1.52
2013-8-13,71.4,66.3,61.7,66.7,57.2,51.4,94,73,56,30.17,29.94,14,5,14,0.00
2013-8-14,72.9,63.9,53.1,56.0,52.0,48.7,87,66,48,30.28,30.14,10,3,10,0.00
2013-8-15,78.1,63.8,49.6,60.1,54.2,47.1,94,73,47,30.24,30.13,8,1,8,0.00
2013-8-16,81.0,67.8,54.9,65.3,57.4,52.3,95,72,44,30.24,30.13,7,1,7,0.00
2013-8-17,82.6,67.9,52.9,67.3,57.5,50.3,95,73,44,30.30,30.18,10,2,10,0.00
2013-8-18,83.1,69.3,55.8,68.8,60.1,53.2,95,75,52,30.30,30.12,7,1,7,0.00
2013-8-19,88.7,72.2,56.5,69.8,61.2,53.9,94,71,45,30.19,30.05,6,1,6,0.00
2013-8-20,89.1,75.3,62.1,71.9,65.7,59.2,95,74,51,30.21,30.06,8,2,8,0.00
2013-8-21,93.0,78.3,64.4,72.9,67.2,62.0,94,72,46,30.18,30.00,12,2,12,0.03
2013-8-22,75.4,71.6,63.9,71.0,67.8,61.5,94,88,80,30.21,30.06,13,3,13,0.36
2013-8-23,81.9,72.1,61.0,70.9,63.4,56.6,95,76,48,30.23,30.09,9,2,9,0.00
2013-8-24,87.3,71.3,56.8,64.6,59.3,54.2,93,69,43,30.33,30.18,8,2,8,0.00
2013-8-25,91.6,75.5,59.9,69.1,63.3,56.3,91,69,46,30.33,30.17,9,2,9,0.00
2013-8-26,91.9,78.2,63.9,75.4,68.7,59.7,90,74,56,30.23,30.04,9,2,9,0.00
2013-8-27,97.0,84.4,72.7,78.4,72.7,69.1,90,70,47,30.06,29.89,15,4,15,0.00
2013-8-28,82.9,75.9,71.2,72.7,69.9,66.4,93,82,61,30.06,29.88,11,3,11,0.00
2013-8-29,85.6,76.1,68.5,75.1,70.3,65.5,95,83,64,30.16,29.94,8,2,8,0.00
2013-8-30,98.4,79.7,66.4,77.1,70.4,64.3,95,76,48,30.00,29.80,21,3,21,0.08
2013-8-31,76.8,72.5,70.7,74.6,69.1,67.5,95,89,82,29.94,29.82,7,2,7,0.36
2013-9-1,86.2,76.1,68.7,75.0,70.5,66.9,95,84,64,29.89,29.77,8,2,8,0.00
2013-9-2,79.3,72.1,65.8,68.4,64.8,57.7,89,78,64,30.02,29.81,10,4,10,0.00
2013-9-3,77.2,66.9,57.7,63.5,58.2,54.4,90,74,58,30.16,29.99,11,2,11,0.00
2013-9-4,85.8,68.8,53.2,68.4,58.2,51.0,95,73,43,30.21,30.06,7,1,7,0.00
2013-9-5,79.0,67.1,55.6,64.6,56.7,48.4,94,72,44,30.31,30.13,9,2,9,0.00
2013-9-6,87.6,69.6,53.6,66.6,58.2,49.2,89,69,47,30.27,30.06,9,2,9,0.00
2013-9-7,92.1,74.7,62.6,70.5,65.2,59.8,94,75,43,30.07,29.91,10,2,10,0.00
2013-9-8,83.7,74.6,65.7,71.9,67.6,62.3,93,80,65,30.09,29.95,9,3,9,0.00
2013-9-9,97.7,81.3,66.4,77.1,70.9,62.9,91,72,50,30.01,29.86,12,4,12,0.00
2013-9-10,99.7,85.6,72.9,72.0,68.6,65.8,86,60,35,30.09,29.92,22,4,22,0.00
2013-9-11,97.9,80.8,71.8,73.0,69.8,66.9,86,71,41,30.12,29.93,13,3,13,0.03
2013-9-12,88.3,74.1,65.3,69.1,63.3,54.9,92,71,41,30.08,29.96,18,4,18,0.00
2013-9-13,68.7,62.1,49.5,55.5,50.1,43.7,82,65,48,30.21,30.07,16,6,16,0.00
2013-9-14,75.7,58.3,43.0,53.4,44.2,39.8,94,64,33,30.23,30.06,8,2,8,0.00
2013-9-15,65.5,58.2,48.6,59.5,52.4,41.7,92,81,66,30.14,30.00,7,1,7,0.19
2013-9-16,66.4,59.5,52.2,56.3,52.7,47.3,93,79,61,30.40,30.14,12,3,12,0.00
2013-9-17,75.0,61.0,48.0,56.1,51.0,44.3,91,72,49,30.38,30.14,8,2,8,0.00
2013-9-18,85.8,69.1,58.8,67.0,59.5,50.1,93,73,51,30.17,29.97,20,2,20,2.93
2013-9-19,81.5,71.3,65.8,73.6,68.2,63.8,95,90,74,30.04,29.81,12,3,12,0.47
2013-9-20,77.5,71.3,61.2,72.0,64.7,53.5,90,80,68,29.93,29.80,12,3,12,0.00
2013-9-21,68.0,62.2,53.4,56.2,52.6,47.1,83,71,55,29.95,29.81,14,5,14,0.00
2013-9-22,68.2,57.9,50.7,53.5,49.3,44.8,89,74,54,30.11,29.94,10,2,10,0.00
2013-9-23,74.3,57.1,42.6,53.1,47.2,39.9,93,72,45,30.17,30.04,7,1,7,0.00
2013-9-24,74.7,60.2,49.3,55.7,50.4,44.7,86,72,46,30.09,29.88,8,2,8,0.00
2013-9-25,75.6,60.4,49.3,59.5,53.0,46.2,94,78,48,30.03,29.94,8,2,8,0.00
2013-9-26,79.0,62.2,48.7,63.6,54.2,46.5,95,77,47,30.13,29.97,7,1,7,0.00
2013-9-28,85.5,78.6,73.2,63.4,60.2,58.3,63,54,44,30.15,29.95,13,5,13,0.00
2013-9-29,73.6,63.9,48.2,60.6,55.6,45.4,90,75,60,30.12,29.95,14,3,14,0.22
2013-9-30,77.9,59.9,46.2,62.7,50.8,43.6,95,75,38,30.05,29.91,8,1,8,0.00
2013-10-1,80.4,68.6,58.6,68.8,63.0,55.7,94,83,64,30.06,29.93,12,4,12,0.00
2013-10-2,79.7,70.0,60.3,66.1,60.1,52.1,93,73,50,30.16,30.00,7,2,7,0.00
2013-10-3,78.3,68.9,60.4,73.0,66.3,56.2,95,92,79,30.04,29.89,8,2,8,0.58
2013-10-4,85.1,71.6,64.6,74.8,67.9,62.8,95,88,70,30.07,29.93,8,2,8,0.00
2013-10-5,84.0,72.3,67.6,77.2,69.2,65.5,95,90,74,30.01,29.81,13,3,13,0.58
2013-10-6,68.2,58.4,45.5,66.7,52.4,41.1,96,82,55,29.85,29.73,12,3,12,0.33
2013-10-7,67.1,53.5,45.9,53.2,46.5,42.0,89,78,51,30.09,29.78,12,2,12,0.00
2013-10-8,78.8,59.6,44.4,59.1,49.7,42.2,94,73,40,30.24,30.09,7,2,7,0.00
2013-10-9,75.6,61.8,44.6,58.4,50.7,42.1,95,70,40,30.28,30.15,10,1,10,0.00
2013-10-10,79.0,59.5,45.5,60.5,51.4,43.5,95,77,43,30.22,30.07,6,1,6,0.00
2013-10-11,79.3,61.3,48.9,58.9,51.2,46.4,92,73,40,30.14,29.99,7,1,7,0.00
2013-10-12,78.8,62.8,51.8,64.8,56.2,48.1,92,80,57,30.16,30.00,14,2,14,0.11
2013-10-13,64.6,52.7,42.6,57.2,46.1,39.9,95,80,53,30.41,30.16,10,2,10,0.03
2013-10-14,67.8,53.0,41.0,51.9,45.9,38.9,94,79,51,30.39,30.14,11,2,11,0.00
2013-10-15,67.5,58.7,51.6,62.1,54.7,46.7,94,87,79,30.17,29.82,12,4,12,0.19
2013-10-16,56.7,51.8,45.0,52.2,47.2,42.8,93,84,76,29.97,29.86,12,3,12,0.00
2013-10-17,55.0,49.6,39.4,50.7,45.7,37.2,93,87,72,29.94,29.84,10,2,10,0.14
2013-10-18,57.0,46.3,39.4,49.4,41.8,37.2,95,85,72,30.02,29.85,12,3,12,0.00
2013-10-19,57.0,48.8,43.2,46.0,40.5,36.2,91,74,49,29.95,29.82,13,3,13,0.03
2013-10-20,64.6,53.5,37.9,49.1,43.4,35.3,92,70,52,29.96,29.76,13,4,13,0.00
2013-10-21,56.8,48.2,33.3,48.5,39.5,26.4,91,73,55,29.99,29.81,13,3,13,0.08
2013-10-22,48.0,36.9,28.2,38.0,32.0,24.6,93,83,52,30.03,29.91,8,1,8,0.14
2013-10-23,47.7,41.6,35.2,38.2,32.9,27.9,94,73,50,30.04,29.86,14,4,14,0.21
2013-10-24,45.5,40.8,36.0,33.0,29.7,26.2,79,65,50,30.26,30.00,11,4,11,0.00
2013-10-25,52.7,41.2,28.9,34.3,29.6,24.4,86,65,45,30.42,30.10,15,4,15,0.00
2013-10-26,58.6,48.5,39.4,41.5,34.5,30.0,72,58,51,30.09,29.88,17,6,17,0.00
2013-10-27,58.1,42.7,30.6,38.4,32.3,27.4,91,69,42,30.12,29.98,13,2,13,0.00
2013-10-28,62.1,45.0,30.6,48.0,38.7,27.7,93,79,57,30.33,30.06,9,2,9,0.00
2013-10-29,59.4,46.8,33.3,44.8,39.5,30.6,93,77,56,30.40,30.14,8,2,8,0.00
2013-10-30,64.9,54.3,41.5,63.2,50.9,38.3,95,88,80,30.18,29.81,12,2,12,1.80
2013-10-31,65.1,61.2,49.5,63.3,59.1,46.8,94,93,91,29.81,29.26,18,6,18,0.80
2013-11-1,53.4,48.9,46.4,46.9,43.8,41.7,91,83,70,29.75,29.39,21,4,21,0.08
2013-11-2,49.5,45.1,42.1,45.7,41.8,39.4,93,89,73,30.11,29.75,13,2,13,0.11
2013-11-3,55.8,45.5,38.3,48.0,40.3,35.8,92,83,63,30.36,30.11,12,2,12,0.11
2013-11-4,58.1,50.1,42.8,45.3,41.5,37.7,82,73,58,30.30,30.14,14,5,14,0.00
2013-11-5,57.7,54.5,51.6,51.6,48.0,45.2,88,79,73,30.34,30.01,13,4,13,0.00
2013-11-6,58.1,51.4,41.4,54.0,46.5,30.2,89,83,63,30.14,29.82,18,7,18,1.05
2013-11-7,50.0,39.9,31.3,35.2,31.1,26.0,86,71,51,30.27,30.14,13,4,13,0.00
2013-11-8,51.4,41.0,28.9,36.5,32.2,25.8,89,72,54,30.35,30.03,15,3,15,0.00
2013-11-9,62.8,52.4,45.7,45.0,39.2,27.9,71,61,48,30.09,29.90,21,8,21,0.00
2013-11-10,50.7,42.9,36.1,35.2,31.8,27.5,80,65,51,30.38,30.09,22,5,22,0.00
2013-11-11,48.6,41.4,33.6,40.2,33.5,25.4,90,74,63,30.41,30.09,22,6,22,0.28
2013-11-12,36.5,32.3,24.6,28.6,23.2,17.4,80,69,57,30.68,30.41,16,6,16,0.00
2013-11-13,43.0,31.2,20.1,24.7,20.8,16.0,84,67,45,30.56,30.19,18,6,18,0.00
2013-11-14,53.8,42.1,32.4,31.8,26.5,21.8,67,55,41,30.19,29.97,19,8,19,0.00
2013-11-15,51.6,44.8,39.0,38.2,32.8,27.8,80,63,52,30.08,29.96,13,5,13,0.00
2013-11-16,62.2,53.0,41.4,58.3,48.7,35.3,90,85,77,29.98,29.65,18,8,18,0.14
2013-11-17,68.5,59.2,44.4,63.8,53.8,37.0,89,82,72,29.74,29.28,25,10,25,0.28
2013-11-18,47.5,41.9,37.0,37.3,32.2,28.0,80,69,56,30.23,29.74,17,8,17,0.00
2013-11-19,46.6,37.0,30.4,34.7,29.6,24.3,88,75,62,30.38,30.23,10,3,10,0.00
2013-11-20,47.7,39.9,31.3,38.4,31.7,26.0,89,73,56,30.32,30.11,16,5,16,0.17
2013-11-21,53.6,47.4,41.4,46.3,43.4,38.4,92,86,74,30.23,30.11,13,3,13,0.25
2013-11-22,45.7,38.6,28.0,43.5,34.4,24.6,92,85,77,30.43,30.17,16,6,16,0.03
2013-11-23,29.7,25.9,22.1,24.5,17.1,11.8,88,69,59,30.61,30.37,23,8,23,0.00
2013-11-24,31.5,23.3,17.2,13.2,9.6,4.7,68,57,33,30.67,30.38,12,5,12,0.00
2013-11-25,34.3,29.4,21.4,27.2,20.1,10.7,84,69,54,30.38,30.08,19,7,19,0.00
2013-11-26,38.3,32.0,25.7,30.7,25.5,18.2,86,77,63,30.10,29.98,22,6,22,0.00
2013-11-27,30.0,25.8,22.3,21.6,18.1,13.7,86,73,59,30.24,30.07,18,7,18,0.00
2013-11-28,38.7,30.2,23.7,22.2,18.2,15.0,69,61,48,30.44,30.22,15,5,15,0.00
2013-11-29,41.5,32.0,25.3,26.6,21.9,17.6,74,66,52,30.64,30.39,9,3,9,0.00
2013-11-30,53.4,40.0,30.0,34.9,29.0,23.6,79,65,47,30.40,30.06,13,5,13,0.00
2013-12-1,45.1,35.8,27.9,40.7,31.7,24.3,90,85,76,30.15,29.98,8,2,8,0.00
2013-12-2,45.0,37.4,29.5,34.6,31.5,26.9,92,80,60,29.98,29.78,9,3,9,0.14
2013-12-3,52.3,45.7,37.2,48.9,42.7,34.3,90,89,87,29.80,29.70,10,5,10,0.12
2013-12-4,59.5,53.0,46.6,55.3,49.6,41.5,91,88,77,29.77,29.57,16,5,16,0.00
2013-12-5,48.0,32.0,26.1,41.5,24.7,17.3,83,74,65,30.23,29.69,15,6,15,0.00
2013-12-6,26.4,24.4,20.7,19.5,16.8,12.7,77,72,69,30.47,30.19,13,6,13,0.00
2013-12-7,22.5,17.9,13.3,14.0,11.0,8.4,83,74,64,30.70,30.47,13,4,13,0.00
2013-12-8,27.9,23.5,13.3,24.8,18.4,9.1,88,81,72,30.54,29.93,10,2,10,0.00
2013-12-9,28.2,21.9,7.3,25.1,15.3,-0.9,88,76,64,30.21,29.92,15,6,15,0.00
2013-12-10,28.2,15.2,1.2,16.5,6.5,-4.1,79,69,59,30.27,30.04,20,6,20,0.00
2013-12-11,24.6,17.4,4.5,18.6,9.9,-3.5,85,72,61,30.52,30.25,13,4,13,0.00
2013-12-12,25.3,11.5,-2.4,12.3,3.5,-8.4,83,70,55,30.52,30.21,15,4,15,0.03
2013-12-13,36.1,24.4,12.9,25.9,17.6,8.9,87,76,57,30.25,30.09,7,2,7,0.03
2013-12-14,31.8,29.6,28.6,27.5,26.1,24.5,89,86,83,30.09,29.87,12,4,12,0.00
2013-12-15,28.9,18.0,11.1,24.4,12.1,5.0,86,77,69,30.10,29.92,13,5,13,0.00
2013-12-16,25.7,19.4,9.9,18.8,13.9,5.7,87,79,67,30.20,30.00,8,2,8,0.00
2013-12-17,34.7,25.7,19.2,28.5,21.2,15.7,89,83,73,30.07,29.98,12,4,12,0.06
2013-12-18,38.3,27.5,12.9,31.1,19.2,8.6,86,71,59,30.23,29.85,21,6,21,0.11
2013-12-19,45.7,39.5,34.2,39.2,34.8,30.7,90,83,75,30.18,29.79,12,3,12,0.08
2013-12-20,41.5,37.9,34.9,39.1,35.5,32.2,92,91,90,29.80,29.71,8,2,8,0.25
2013-12-21,37.2,35.4,34.3,34.1,32.5,31.2,90,89,88,29.84,29.58,15,3,15,0.53
2013-12-22,35.4,33.3,28.4,31.9,29.8,24.5,88,87,85,30.09,29.58,14,4,14,0.14
2013-12-23,28.6,19.8,3.4,24.6,14.3,-1.9,85,79,67,30.41,30.09,14,6,14,0.00
2013-12-24,22.8,12.1,2.5,14.8,6.1,-2.6,81,77,68,30.55,30.37,12,5,12,0.00
2013-12-25,29.3,26.0,20.3,25.6,20.9,14.5,86,81,72,30.37,30.09,16,6,16,0.00
2013-12-26,36.5,28.3,16.7,30.3,22.5,12.2,85,79,73,30.35,30.09,18,5,18,0.00
2013-12-27,46.9,37.4,25.3,35.0,30.7,21.6,87,77,62,30.32,30.09,16,5,16,0.03
2013-12-28,54.1,42.8,33.6,39.6,34.5,29.3,85,73,57,30.10,29.86,14,6,14,0.00
2013-12-29,39.4,32.1,19.6,33.8,26.8,12.6,87,81,74,30.14,29.77,14,7,14,0.00
2013-12-30,20.7,16.2,10.4,13.5,9.6,5.2,82,75,69,30.34,30.13,12,4,12,0.00
2013-12-31,21.2,14.0,5.4,17.5,8.9,1.1,86,80,68,30.37,30.14,10,3,10,0.00
2014-1-1,23.2,20.1,16.2,17.9,15.6,11.8,86,83,77,30.32,30.14,10,4,10,0.00
2014-1-2,21.7,18.8,13.8,16.5,13.8,9.6,85,81,70,30.36,30.06,19,8,19,0.00